createdAt,value
2017-03-22T00:00:55.177Z,21.66
2017-03-22T00:02:04.209Z,21.7
2017-03-22T00:03:12.945Z,21.62
2017-03-22T00:04:22.937Z,21.67
2017-03-22T00:05:32.001Z,21.7
2017-03-22T00:06:41.011Z,21.7
2017-03-22T00:07:50.084Z,21.7
2017-03-22T00:08:59.452Z,21.62
2017-03-22T00:10:08.535Z,21.58
2017-03-22T00:11:17.613Z,21.62
2017-03-22T00:12:26.679Z,21.58
2017-03-22T00:13:35.399Z,21.61
2017-03-22T00:14:44.756Z,21.67
2017-03-22T00:15:54.186Z,21.58
2017-03-22T00:17:03.260Z,21.58
2017-03-22T00:18:12.603Z,21.61
2017-03-22T00:19:21.947Z,21.58
2017-03-22T00:20:30.977Z,21.58
2017-03-22T00:21:39.714Z,21.58
2017-03-22T00:22:49.387Z,21.58
2017-03-22T00:23:59.673Z,21.6
2017-03-22T00:25:09.042Z,21.61
2017-03-22T00:26:18.716Z,21.54
2017-03-22T00:27:27.789Z,21.6
2017-03-22T00:28:37.427Z,21.52
2017-03-22T00:29:46.667Z,21.55
2017-03-22T00:30:56.044Z,21.52
2017-03-22T00:32:05.417Z,21.52
2017-03-22T00:33:15.393Z,21.57
2017-03-22T00:34:25.067Z,21.5
2017-03-22T00:35:34.404Z,21.5
2017-03-22T00:36:43.742Z,21.48
2017-03-22T00:37:52.812Z,21.5
2017-03-22T00:39:02.483Z,21.51
2017-03-22T00:40:11.853Z,21.48
2017-03-22T00:41:20.921Z,21.52
2017-03-22T00:42:29.981Z,21.5
2017-03-22T00:43:39.555Z,21.5
2017-03-22T00:44:49.240Z,21.54
2017-03-22T00:45:58.921Z,21.48
2017-03-22T00:47:07.994Z,21.45
2017-03-22T00:48:17.375Z,21.45
2017-03-22T00:49:26.764Z,21.46
2017-03-22T00:50:36.135Z,21.43
2017-03-22T00:51:45.200Z,21.48
2017-03-22T00:52:54.606Z,21.5
2017-03-22T00:54:04.280Z,21.4
2017-03-22T00:55:13.615Z,21.39
2017-03-22T00:56:22.350Z,21.4
2017-03-22T00:57:31.112Z,21.37
2017-03-22T00:58:40.789Z,21.45
2017-03-22T00:59:50.170Z,21.43
2017-03-22T01:00:59.532Z,21.4
2017-03-22T01:02:08.261Z,21.43
2017-03-22T01:03:17.868Z,21.43
2017-03-22T01:04:26.914Z,21.39
2017-03-22T01:05:35.985Z,21.42
2017-03-22T01:06:44.745Z,21.36
2017-03-22T01:07:54.108Z,21.33
2017-03-22T01:09:03.785Z,21.36
2017-03-22T01:10:12.818Z,21.36
2017-03-22T01:11:21.816Z,21.39
2017-03-22T01:12:31.405Z,21.32
2017-03-22T01:13:40.779Z,21.29
2017-03-22T01:14:50.157Z,21.37
2017-03-22T01:15:59.846Z,21.29
2017-03-22T01:17:08.814Z,21.33
2017-03-22T01:18:18.189Z,21.33
2017-03-22T01:19:27.830Z,21.33
2017-03-22T01:20:37.169Z,21.35
2017-03-22T01:21:46.249Z,21.37
2017-03-22T01:22:55.527Z,21.29
2017-03-22T01:24:04.558Z,21.37
2017-03-22T01:25:13.609Z,21.27
2017-03-22T01:26:22.381Z,21.21
2017-03-22T01:27:32.066Z,21.29
2017-03-22T01:28:41.701Z,21.35
2017-03-22T01:29:51.348Z,21.29
2017-03-22T01:31:00.728Z,21.24
2017-03-22T01:32:10.096Z,21.25
2017-03-22T01:33:19.479Z,21.25
2017-03-22T01:34:29.718Z,21.21
2017-03-22T01:35:38.761Z,21.24
2017-03-22T01:36:48.088Z,21.24
2017-03-22T01:37:57.422Z,21.21
2017-03-22T01:39:07.413Z,21.21
2017-03-22T01:40:16.787Z,21.22
2017-03-22T01:41:25.501Z,21.18
2017-03-22T01:42:34.539Z,21.22
2017-03-22T01:43:43.617Z,21.33
2017-03-22T01:44:53.588Z,21.25
2017-03-22T01:46:03.270Z,21.18
2017-03-22T01:47:12.651Z,21.29
2017-03-22T01:48:22.024Z,21.25
2017-03-22T01:49:31.709Z,21.25
2017-03-22T01:50:40.771Z,21.21
2017-03-22T01:51:49.833Z,21.24
2017-03-22T01:52:59.201Z,21.21
2017-03-22T01:54:08.580Z,21.29
2017-03-22T01:55:17.950Z,21.24
2017-03-22T01:56:27.019Z,21.22
2017-03-22T01:57:36.094Z,21.22
2017-03-22T01:58:45.764Z,21.25
2017-03-22T01:59:54.830Z,21.21
2017-03-22T02:01:04.055Z,21.21
2017-03-22T02:02:13.108Z,21.17
2017-03-22T02:03:22.172Z,21.17
2017-03-22T02:04:32.051Z,21.2
2017-03-22T02:05:41.133Z,21.18
2017-03-22T02:06:49.895Z,21.22
2017-03-22T02:07:59.272Z,21.2
2017-03-22T02:09:08.652Z,21.17
2017-03-22T02:10:17.715Z,21.24
2017-03-22T02:11:26.777Z,21.12
2017-03-22T02:12:35.797Z,21.18
2017-03-22T02:13:44.840Z,21.14
2017-03-22T02:14:54.169Z,21.21
2017-03-22T02:16:03.518Z,21.22
2017-03-22T02:17:12.239Z,21.15
2017-03-22T02:18:20.989Z,21.12
2017-03-22T02:19:30.675Z,21.17
2017-03-22T02:20:40.051Z,21.17
2017-03-22T02:21:48.820Z,21.07
2017-03-22T02:22:58.191Z,21.14
2017-03-22T02:24:07.838Z,21.15
2017-03-22T02:25:17.174Z,21.12
2017-03-22T02:26:26.199Z,21.18
2017-03-22T02:27:35.537Z,21.11
2017-03-22T02:28:45.493Z,21.12
2017-03-22T02:29:54.835Z,21.07
2017-03-22T02:31:03.868Z,21.14
2017-03-22T02:32:12.640Z,21.11
2017-03-22T02:33:21.718Z,21.12
2017-03-22T02:34:30.791Z,21.07
2017-03-22T02:35:39.960Z,21.05
2017-03-22T02:36:49.288Z,21.09
2017-03-22T02:37:58.324Z,21.09
2017-03-22T02:39:08.213Z,21.07
2017-03-22T02:40:17.548Z,21.07
2017-03-22T02:41:26.609Z,21
2017-03-22T02:42:35.982Z,21.09
2017-03-22T02:43:45.917Z,21.09
2017-03-22T02:44:54.991Z,21.07
2017-03-22T02:46:04.374Z,21.03
2017-03-22T02:47:13.440Z,21.03
2017-03-22T02:48:22.815Z,20.97
2017-03-22T02:49:32.503Z,21.07
2017-03-22T02:50:41.885Z,20.99
2017-03-22T02:51:50.945Z,21.03
2017-03-22T02:52:59.756Z,21.03
2017-03-22T02:54:09.140Z,21
2017-03-22T02:55:18.809Z,21.03
2017-03-22T02:56:27.874Z,21
2017-03-22T02:57:37.553Z,21
2017-03-22T02:58:47.140Z,21.03
2017-03-22T02:59:56.770Z,20.95
2017-03-22T03:01:06.148Z,21.02
2017-03-22T03:02:14.919Z,20.93
2017-03-22T03:03:24.595Z,20.9
2017-03-22T03:04:33.973Z,20.95
2017-03-22T03:05:42.738Z,20.88
2017-03-22T03:06:51.787Z,20.93
2017-03-22T03:08:00.544Z,20.88
2017-03-22T03:09:09.610Z,20.96
2017-03-22T03:10:19.386Z,20.96
2017-03-22T03:11:28.751Z,20.93
2017-03-22T03:12:38.590Z,20.96
2017-03-22T03:13:48.826Z,20.97
2017-03-22T03:14:58.770Z,20.87
2017-03-22T03:16:08.137Z,20.96
2017-03-22T03:17:17.203Z,20.93
2017-03-22T03:18:26.572Z,20.88
2017-03-22T03:19:36.248Z,20.95
2017-03-22T03:20:45.623Z,20.88
2017-03-22T03:21:54.688Z,20.9
2017-03-22T03:23:04.368Z,20.92
2017-03-22T03:24:13.445Z,20.9
2017-03-22T03:25:23.111Z,20.84
2017-03-22T03:26:31.838Z,20.87
2017-03-22T03:27:41.485Z,20.92
2017-03-22T03:28:51.173Z,20.85
2017-03-22T03:30:01.163Z,20.84
2017-03-22T03:31:10.199Z,20.82
2017-03-22T03:32:19.268Z,20.82
2017-03-22T03:33:28.905Z,20.84
2017-03-22T03:34:38.597Z,20.82
2017-03-22T03:35:47.674Z,20.78
2017-03-22T03:36:56.736Z,20.7
2017-03-22T03:38:06.052Z,20.8
2017-03-22T03:39:14.860Z,20.84
2017-03-22T03:40:23.922Z,20.77
2017-03-22T03:41:32.691Z,20.74
2017-03-22T03:42:41.474Z,20.8
2017-03-22T03:43:50.852Z,20.78
2017-03-22T03:45:00.532Z,20.77
2017-03-22T03:46:09.293Z,20.81
2017-03-22T03:47:18.356Z,20.69
2017-03-22T03:48:27.623Z,20.78
2017-03-22T03:49:37.306Z,20.77
2017-03-22T03:50:46.368Z,20.75
2017-03-22T03:51:56.054Z,20.72
2017-03-22T03:53:05.122Z,20.74
2017-03-22T03:54:14.795Z,20.72
2017-03-22T03:55:23.569Z,20.66
2017-03-22T03:56:33.238Z,20.78
2017-03-22T03:57:42.617Z,20.63
2017-03-22T03:58:52.295Z,20.67
2017-03-22T04:00:02.263Z,20.7
2017-03-22T04:01:11.025Z,20.65
2017-03-22T04:02:20.096Z,20.75
2017-03-22T04:03:29.442Z,20.67
2017-03-22T04:04:39.354Z,20.66
2017-03-22T04:05:48.732Z,20.66
2017-03-22T04:06:57.498Z,20.66
2017-03-22T04:08:07.176Z,20.66
2017-03-22T04:09:16.553Z,20.7
2017-03-22T04:10:25.284Z,20.67
2017-03-22T04:11:34.891Z,20.67
2017-03-22T04:12:43.660Z,20.66
2017-03-22T04:13:53.346Z,20.67
2017-03-22T04:15:02.695Z,20.67
2017-03-22T04:16:11.711Z,20.69
2017-03-22T04:17:20.793Z,20.67
2017-03-22T04:18:30.169Z,20.63
2017-03-22T04:19:39.551Z,20.65
2017-03-22T04:20:48.311Z,20.67
2017-03-22T04:21:57.379Z,20.6
2017-03-22T04:23:07.067Z,20.6
2017-03-22T04:24:16.751Z,20.65
2017-03-22T04:25:26.739Z,20.59
2017-03-22T04:26:35.510Z,20.58
2017-03-22T04:27:44.580Z,20.65
2017-03-22T04:28:54.262Z,20.58
2017-03-22T04:30:03.599Z,20.6
2017-03-22T04:31:12.339Z,20.59
2017-03-22T04:32:21.408Z,20.65
2017-03-22T04:33:30.794Z,20.56
2017-03-22T04:34:40.442Z,20.51
2017-03-22T04:35:49.169Z,20.58
2017-03-22T04:36:58.536Z,20.59
2017-03-22T04:38:07.913Z,20.59
2017-03-22T04:39:16.995Z,20.5
2017-03-22T04:40:26.673Z,20.51
2017-03-22T04:41:36.048Z,20.51
2017-03-22T04:42:45.080Z,20.6
2017-03-22T04:43:54.794Z,20.51
2017-03-22T04:45:04.441Z,20.59
2017-03-22T04:46:14.392Z,20.47
2017-03-22T04:47:23.468Z,20.62
2017-03-22T04:48:32.836Z,20.6
2017-03-22T04:49:42.217Z,20.52
2017-03-22T04:50:51.887Z,20.6
2017-03-22T04:52:00.952Z,20.5
2017-03-22T04:53:10.663Z,20.56
2017-03-22T04:54:20.040Z,20.59
2017-03-22T04:55:29.721Z,20.56
2017-03-22T04:56:38.527Z,20.51
2017-03-22T04:57:48.193Z,20.55
2017-03-22T04:58:57.578Z,20.62
2017-03-22T05:00:06.659Z,20.65
2017-03-22T05:01:15.890Z,20.58
2017-03-22T05:02:24.623Z,20.62
2017-03-22T05:03:34.300Z,20.65
2017-03-22T05:04:43.644Z,20.62
2017-03-22T05:05:52.376Z,20.58
2017-03-22T05:07:01.414Z,20.58
2017-03-22T05:08:10.787Z,20.6
2017-03-22T05:09:20.471Z,20.62
2017-03-22T05:10:29.809Z,20.59
2017-03-22T05:11:38.541Z,20.58
2017-03-22T05:12:47.569Z,20.59
2017-03-22T05:13:57.556Z,20.62
2017-03-22T05:15:06.635Z,20.65
2017-03-22T05:16:15.559Z,20.67
2017-03-22T05:17:24.605Z,20.67
2017-03-22T05:18:34.284Z,20.7
2017-03-22T05:19:43.657Z,20.67
2017-03-22T05:20:53.340Z,20.67
2017-03-22T05:22:02.072Z,20.69
2017-03-22T05:23:11.149Z,20.65
2017-03-22T05:24:21.636Z,20.7
2017-03-22T05:25:30.974Z,20.66
2017-03-22T05:26:40.263Z,20.69
2017-03-22T05:27:49.647Z,20.7
2017-03-22T05:28:59.023Z,20.62
2017-03-22T05:30:08.098Z,20.65
2017-03-22T05:31:17.372Z,20.75
2017-03-22T05:32:26.129Z,20.72
2017-03-22T05:33:34.872Z,20.77
2017-03-22T05:34:44.812Z,20.74
2017-03-22T05:35:54.454Z,20.75
2017-03-22T05:37:03.456Z,20.78
2017-03-22T05:38:12.499Z,20.82
2017-03-22T05:39:22.191Z,20.77
2017-03-22T05:40:31.567Z,20.75
2017-03-22T05:41:40.335Z,20.81
2017-03-22T05:42:49.714Z,20.8
2017-03-22T05:43:58.783Z,20.8
2017-03-22T05:45:07.862Z,20.81
2017-03-22T05:46:16.930Z,20.85
2017-03-22T05:47:25.697Z,20.82
2017-03-22T05:48:35.035Z,20.82
2017-03-22T05:49:44.384Z,20.84
2017-03-22T05:50:53.113Z,20.87
2017-03-22T05:52:02.118Z,20.88
2017-03-22T05:53:11.164Z,20.9
2017-03-22T05:54:20.537Z,20.95
2017-03-22T05:55:29.296Z,20.96
2017-03-22T05:56:38.368Z,20.95
2017-03-22T05:57:47.440Z,20.88
2017-03-22T05:58:57.633Z,20.93
2017-03-22T06:00:06.984Z,20.96
2017-03-22T06:01:16.368Z,21.03
2017-03-22T06:02:25.134Z,20.99
2017-03-22T06:03:34.212Z,21.03
2017-03-22T06:04:44.102Z,20.99
2017-03-22T06:05:53.158Z,21
2017-03-22T06:07:01.919Z,21.03
2017-03-22T06:08:11.288Z,21.06
2017-03-22T06:09:21.271Z,21.05
2017-03-22T06:10:30.642Z,21.06
2017-03-22T06:11:39.769Z,21.06
2017-03-22T06:12:49.070Z,21.12
2017-03-22T06:13:58.117Z,21.07
2017-03-22T06:15:06.875Z,21.09
2017-03-22T06:16:15.837Z,21.12
2017-03-22T06:17:25.181Z,21.21
2017-03-22T06:18:34.554Z,21.11
2017-03-22T06:19:43.321Z,21.18
2017-03-22T06:20:52.396Z,21.17
2017-03-22T06:22:01.469Z,21.27
2017-03-22T06:23:10.861Z,21.2
2017-03-22T06:24:20.225Z,21.25
2017-03-22T06:25:29.859Z,21.22
2017-03-22T06:26:38.593Z,21.25
2017-03-22T06:27:47.665Z,21.35
2017-03-22T06:28:56.737Z,21.25
2017-03-22T06:30:06.111Z,21.29
2017-03-22T06:31:14.871Z,21.35
2017-03-22T06:32:24.241Z,21.29
2017-03-22T06:33:34.524Z,21.35
2017-03-22T06:34:44.208Z,21.4
2017-03-22T06:35:53.183Z,21.37
2017-03-22T06:37:01.947Z,21.4
2017-03-22T06:38:11.328Z,21.4
2017-03-22T06:39:21.325Z,21.45
2017-03-22T06:40:31.016Z,21.42
2017-03-22T06:41:39.784Z,21.43
2017-03-22T06:42:48.895Z,21.42
2017-03-22T06:43:58.284Z,21.43
2017-03-22T06:45:07.354Z,21.45
2017-03-22T06:46:16.719Z,21.46
2017-03-22T06:47:26.093Z,21.51
2017-03-22T06:48:35.165Z,21.51
2017-03-22T06:49:44.841Z,21.61
2017-03-22T06:50:54.179Z,21.55
2017-03-22T06:52:03.178Z,21.6
2017-03-22T06:53:12.220Z,21.61
2017-03-22T06:54:21.559Z,21.6
2017-03-22T06:55:30.860Z,21.69
2017-03-22T06:56:39.593Z,21.62
2017-03-22T06:57:48.669Z,21.72
2017-03-22T06:58:58.323Z,21.69
2017-03-22T07:00:07.971Z,21.7
2017-03-22T07:01:17.346Z,21.79
2017-03-22T07:02:26.104Z,21.8
2017-03-22T07:03:36.080Z,21.72
2017-03-22T07:04:45.819Z,21.72
2017-03-22T07:05:54.577Z,21.83
2017-03-22T07:07:03.953Z,21.79
2017-03-22T07:08:13.028Z,21.75
2017-03-22T07:09:22.097Z,21.91
2017-03-22T07:10:31.185Z,21.89
2017-03-22T07:11:39.955Z,21.83
2017-03-22T07:12:49.529Z,21.91
2017-03-22T07:13:58.603Z,21.95
2017-03-22T07:15:07.982Z,21.89
2017-03-22T07:16:17.662Z,21.96
2017-03-22T07:17:27.065Z,21.98
2017-03-22T07:18:36.737Z,21.95
2017-03-22T07:19:46.390Z,22.04
2017-03-22T07:20:55.425Z,22.02
2017-03-22T07:22:04.150Z,21.96
2017-03-22T07:23:13.495Z,22.1
2017-03-22T07:24:23.378Z,22.07
2017-03-22T07:25:33.057Z,22.04
2017-03-22T07:26:42.385Z,22.22
2017-03-22T07:27:52.036Z,22.15
2017-03-22T07:29:01.421Z,22.15
2017-03-22T07:30:11.107Z,22.18
2017-03-22T07:31:20.140Z,22.28
2017-03-22T07:32:29.195Z,22.25
2017-03-22T07:33:38.528Z,22.41
2017-03-22T07:34:47.876Z,22.33
2017-03-22T07:35:57.563Z,22.41
2017-03-22T07:37:06.632Z,22.45
2017-03-22T07:38:16.271Z,22.51
2017-03-22T07:39:25.620Z,22.63
2017-03-22T07:40:35.612Z,22.68
2017-03-22T07:41:45.002Z,22.73
2017-03-22T07:42:54.049Z,22.68
2017-03-22T07:44:03.705Z,22.78
2017-03-22T07:45:12.752Z,22.87
2017-03-22T07:46:21.784Z,22.98
2017-03-22T07:47:30.838Z,22.9
2017-03-22T07:48:40.226Z,23
2017-03-22T07:49:49.319Z,23.05
2017-03-22T07:50:58.684Z,23.03
2017-03-22T07:52:07.742Z,23.12
2017-03-22T07:53:17.355Z,23.02
2017-03-22T07:54:26.670Z,23.06
2017-03-22T07:55:35.711Z,23
2017-03-22T07:56:44.437Z,23.05
2017-03-22T07:57:53.765Z,23.06
2017-03-22T07:59:03.074Z,23.08
2017-03-22T08:00:13.027Z,23
2017-03-22T08:01:22.089Z,23.06
2017-03-22T08:02:31.155Z,23.09
2017-03-22T08:03:40.238Z,23.2
2017-03-22T08:04:49.315Z,23.12
2017-03-22T08:05:58.691Z,23.18
2017-03-22T08:07:07.415Z,23.17
2017-03-22T08:08:17.326Z,23.17
2017-03-22T08:09:26.376Z,23.13
2017-03-22T08:10:35.154Z,23.18
2017-03-22T08:11:44.533Z,23.21
2017-03-22T08:12:54.217Z,23.25
2017-03-22T08:14:03.557Z,23.28
2017-03-22T08:15:12.569Z,23.28
2017-03-22T08:16:21.572Z,23.46
2017-03-22T08:17:30.615Z,23.46
2017-03-22T08:18:40.606Z,23.43
2017-03-22T08:19:49.974Z,23.47
2017-03-22T08:20:59.623Z,23.65
2017-03-22T08:22:08.710Z,23.62
2017-03-22T08:23:17.988Z,23.62
2017-03-22T08:24:27.969Z,23.65
2017-03-22T08:25:36.757Z,23.76
2017-03-22T08:26:45.482Z,23.8
2017-03-22T08:27:54.797Z,23.76
2017-03-22T08:29:05.597Z,23.78
2017-03-22T08:30:14.937Z,23.86
2017-03-22T08:31:23.979Z,23.86
2017-03-22T08:32:32.716Z,23.88
2017-03-22T08:33:41.685Z,23.92
2017-03-22T08:34:51.069Z,23.95
2017-03-22T08:36:00.141Z,24.06
2017-03-22T08:37:09.227Z,24.08
2017-03-22T08:38:18.252Z,24.1
2017-03-22T08:39:27.797Z,24.2
2017-03-22T08:40:37.161Z,24.17
2017-03-22T08:41:45.922Z,24.21
2017-03-22T08:42:54.924Z,24.29
2017-03-22T08:44:04.162Z,24.24
2017-03-22T08:45:13.487Z,24.26
2017-03-22T08:46:22.227Z,24.33
2017-03-22T08:47:31.672Z,24.35
2017-03-22T08:48:40.745Z,24.4
2017-03-22T08:49:49.860Z,24.39
2017-03-22T08:50:59.546Z,24.45
2017-03-22T08:52:08.314Z,24.53
2017-03-22T08:53:17.695Z,24.5
2017-03-22T08:54:27.038Z,24.51
2017-03-22T08:55:35.777Z,24.58
2017-03-22T08:56:44.948Z,24.66
2017-03-22T08:57:53.710Z,24.65
2017-03-22T08:59:03.383Z,24.76
2017-03-22T09:00:12.767Z,24.7
2017-03-22T09:01:21.491Z,24.8
2017-03-22T09:02:30.532Z,24.89
2017-03-22T09:03:39.601Z,24.91
2017-03-22T09:04:49.279Z,24.96
2017-03-22T09:05:58.350Z,25.07
2017-03-22T09:07:07.747Z,25.21
2017-03-22T09:08:16.817Z,25.17
2017-03-22T09:09:25.572Z,25.32
2017-03-22T09:10:34.324Z,25.43
2017-03-22T09:11:43.096Z,25.53
2017-03-22T09:12:52.462Z,25.55
2017-03-22T09:14:01.191Z,25.77
2017-03-22T09:15:10.494Z,25.88
2017-03-22T09:16:19.541Z,26.06
2017-03-22T09:17:28.308Z,26.37
2017-03-22T09:18:37.032Z,26.77
2017-03-22T09:19:45.771Z,27.08
2017-03-22T09:20:54.538Z,27.63
2017-03-22T09:22:03.506Z,27.93
2017-03-22T09:23:12.583Z,28.48
2017-03-22T09:24:21.352Z,28.89
2017-03-22T09:25:30.953Z,29.22
2017-03-22T09:26:39.706Z,29.59
2017-03-22T09:27:48.788Z,30
2017-03-22T09:28:57.564Z,30.28
2017-03-22T09:30:06.618Z,30.57
2017-03-22T09:31:15.347Z,30.92
2017-03-22T09:32:24.119Z,31.1
2017-03-22T09:33:33.089Z,31.34
2017-03-22T09:34:42.162Z,31.64
2017-03-22T09:35:51.530Z,31.96
2017-03-22T09:37:00.286Z,32.19
2017-03-22T09:38:09.021Z,32.3
2017-03-22T09:39:17.780Z,32.46
2017-03-22T09:40:26.544Z,32.51
2017-03-22T09:41:35.633Z,32.67
2017-03-22T09:42:44.404Z,32.93
2017-03-22T09:43:53.157Z,33.14
2017-03-22T09:45:01.945Z,33.39
2017-03-22T09:46:10.708Z,33.5
2017-03-22T09:47:19.430Z,33.76
2017-03-22T09:48:28.171Z,33.94
2017-03-22T09:49:36.947Z,34.06
2017-03-22T09:50:46.036Z,34.2
2017-03-22T09:51:54.797Z,34.21
2017-03-22T09:53:03.515Z,34.38
2017-03-22T09:54:12.549Z,34.39
2017-03-22T09:55:21.318Z,34.39
2017-03-22T09:56:30.072Z,34.45
2017-03-22T09:57:39.075Z,34.52
2017-03-22T09:58:47.850Z,34.9
2017-03-22T09:59:56.821Z,35.11
2017-03-22T10:01:05.570Z,35.34
2017-03-22T10:02:14.308Z,35.58
2017-03-22T10:03:23.071Z,35.7
2017-03-22T10:04:32.136Z,35.93
2017-03-22T10:05:40.911Z,35.97
2017-03-22T10:06:49.681Z,36.21
2017-03-22T10:07:58.448Z,36.47
2017-03-22T10:09:07.520Z,36.61
2017-03-22T10:10:16.589Z,36.67
2017-03-22T10:11:25.964Z,36.28
2017-03-22T10:12:35.029Z,35.79
2017-03-22T10:13:43.799Z,35.12
2017-03-22T10:14:52.528Z,34.52
2017-03-22T10:16:01.266Z,33.98
2017-03-22T10:17:09.989Z,33.45
2017-03-22T10:18:18.725Z,32.96
2017-03-22T10:19:28.108Z,32.52
2017-03-22T10:20:36.872Z,32.09
2017-03-22T10:21:45.639Z,31.65
2017-03-22T10:22:54.444Z,31.27
2017-03-22T10:24:03.215Z,31
2017-03-22T10:25:11.981Z,30.66
2017-03-22T10:26:20.748Z,30.35
2017-03-22T10:27:30.561Z,30.05
2017-03-22T10:28:39.326Z,29.84
2017-03-22T10:29:48.396Z,29.44
2017-03-22T10:30:57.123Z,29.38
2017-03-22T10:32:06.471Z,29.05
2017-03-22T10:33:15.193Z,28.93
2017-03-22T10:34:23.931Z,28.74
2017-03-22T10:35:32.700Z,28.49
2017-03-22T10:36:41.474Z,28.3
2017-03-22T10:37:50.552Z,28.15
2017-03-22T10:38:59.311Z,27.95
2017-03-22T10:40:08.078Z,27.75
2017-03-22T10:41:16.844Z,27.73
2017-03-22T10:42:25.657Z,27.55
2017-03-22T10:43:34.414Z,27.47
2017-03-22T10:44:43.144Z,27.35
2017-03-22T10:45:51.889Z,27.2
2017-03-22T10:47:00.664Z,27.08
2017-03-22T10:48:09.422Z,26.99
2017-03-22T10:49:18.798Z,27
2017-03-22T10:50:27.527Z,26.9
2017-03-22T10:51:36.564Z,26.96
2017-03-22T10:52:45.340Z,26.96
2017-03-22T10:53:54.064Z,26.95
2017-03-22T10:55:02.821Z,26.89
2017-03-22T10:56:11.594Z,26.88
2017-03-22T10:57:20.665Z,26.74
2017-03-22T10:58:29.432Z,26.74
2017-03-22T10:59:38.186Z,26.65
2017-03-22T11:00:47.252Z,26.55
2017-03-22T11:01:55.974Z,26.55
2017-03-22T11:03:05.018Z,26.53
2017-03-22T11:04:14.078Z,26.45
2017-03-22T11:05:23.457Z,26.51
2017-03-22T11:06:32.223Z,26.43
2017-03-22T11:07:41.030Z,26.47
2017-03-22T11:08:50.050Z,26.48
2017-03-22T11:09:58.789Z,26.52
2017-03-22T11:11:07.547Z,26.53
2017-03-22T11:12:16.302Z,26.55
2017-03-22T11:13:25.323Z,26.58
2017-03-22T11:14:34.369Z,26.63
2017-03-22T11:15:43.738Z,26.62
2017-03-22T11:16:52.508Z,26.63
2017-03-22T11:18:01.224Z,26.74
2017-03-22T11:19:09.963Z,26.78
2017-03-22T11:20:18.724Z,26.74
2017-03-22T11:21:27.446Z,26.8
2017-03-22T11:22:36.179Z,26.78
2017-03-22T11:23:44.938Z,26.83
2017-03-22T11:24:54.000Z,26.78
2017-03-22T11:26:03.308Z,26.83
2017-03-22T11:27:12.081Z,26.93
2017-03-22T11:28:21.148Z,26.85
2017-03-22T11:29:30.113Z,26.9
2017-03-22T11:30:38.885Z,27.12
2017-03-22T11:31:47.966Z,27.18
2017-03-22T11:32:57.039Z,27.4
2017-03-22T11:34:05.797Z,27.32
2017-03-22T11:35:14.869Z,27.36
2017-03-22T11:36:24.236Z,27.35
2017-03-22T11:37:33.309Z,27.32
2017-03-22T11:38:42.075Z,27.36
2017-03-22T11:39:51.147Z,27.42
2017-03-22T11:41:00.218Z,27.4
2017-03-22T11:42:09.184Z,27.49
2017-03-22T11:43:18.207Z,27.52
2017-03-22T11:44:27.241Z,27.58
2017-03-22T11:45:36.008Z,27.59
2017-03-22T11:46:45.038Z,27.58
2017-03-22T11:47:54.649Z,27.63
2017-03-22T11:49:03.393Z,27.65
2017-03-22T11:50:12.156Z,27.7
2017-03-22T11:51:20.858Z,27.65
2017-03-22T11:52:29.823Z,27.71
2017-03-22T11:53:38.873Z,27.71
2017-03-22T11:54:47.638Z,27.7
2017-03-22T11:55:56.397Z,27.59
2017-03-22T11:57:05.624Z,27.64
2017-03-22T11:58:14.376Z,27.77
2017-03-22T11:59:23.442Z,27.86
2017-03-22T12:00:32.205Z,27.9
2017-03-22T12:01:40.976Z,27.78
2017-03-22T12:02:50.551Z,27.59
2017-03-22T12:03:59.316Z,27.45
2017-03-22T12:05:08.389Z,27.33
2017-03-22T12:06:17.149Z,27.15
2017-03-22T12:07:26.221Z,27.12
2017-03-22T12:08:34.968Z,27.02
2017-03-22T12:09:43.905Z,26.84
2017-03-22T12:10:52.663Z,26.85
2017-03-22T12:12:01.427Z,26.78
2017-03-22T12:13:10.192Z,26.7
2017-03-22T12:14:19.254Z,26.68
2017-03-22T12:15:28.022Z,26.62
2017-03-22T12:16:37.087Z,26.55
2017-03-22T12:17:45.849Z,26.51
2017-03-22T12:18:54.607Z,26.43
2017-03-22T12:20:03.880Z,26.34
2017-03-22T12:21:12.605Z,26.34
2017-03-22T12:22:21.361Z,26.22
2017-03-22T12:23:30.125Z,26.03
2017-03-22T12:24:39.191Z,25.95
2017-03-22T12:25:48.254Z,25.88
2017-03-22T12:26:57.019Z,25.87
2017-03-22T12:28:06.083Z,25.77
2017-03-22T12:29:14.839Z,25.72
2017-03-22T12:30:23.606Z,25.55
2017-03-22T12:31:32.677Z,25.58
2017-03-22T12:32:41.442Z,25.51
2017-03-22T12:33:50.818Z,25.5
2017-03-22T12:34:59.573Z,25.4
2017-03-22T12:36:08.657Z,25.35
2017-03-22T12:37:17.419Z,25.32
2017-03-22T12:38:26.485Z,25.25
2017-03-22T12:39:35.816Z,25.26
2017-03-22T12:40:44.556Z,25.13
2017-03-22T12:41:53.933Z,25.1
2017-03-22T12:43:02.659Z,25.06
2017-03-22T12:44:11.699Z,24.92
2017-03-22T12:45:20.763Z,24.89
2017-03-22T12:46:29.541Z,24.8
2017-03-22T12:47:38.315Z,24.86
2017-03-22T12:48:47.042Z,24.8
2017-03-22T12:49:56.686Z,24.7
2017-03-22T12:51:05.460Z,24.68
2017-03-22T12:52:14.226Z,24.69
2017-03-22T12:53:22.987Z,24.68
2017-03-22T12:54:32.065Z,24.66
2017-03-22T12:55:40.839Z,24.61
2017-03-22T12:56:49.863Z,24.77
2017-03-22T12:57:58.599Z,24.65
2017-03-22T12:59:07.562Z,24.68
2017-03-22T13:00:16.630Z,24.65
2017-03-22T13:01:25.364Z,24.81
2017-03-22T13:02:34.787Z,24.84
2017-03-22T13:03:43.544Z,24.77
2017-03-22T13:04:52.568Z,24.88
2017-03-22T13:06:01.622Z,24.89
2017-03-22T13:07:10.397Z,24.95
2017-03-22T13:08:19.661Z,24.84
2017-03-22T13:09:28.528Z,24.88
2017-03-22T13:10:37.251Z,24.78
2017-03-22T13:11:46.298Z,24.78
2017-03-22T13:12:55.109Z,24.8
2017-03-22T13:14:03.870Z,24.81
2017-03-22T13:15:12.637Z,24.81
2017-03-22T13:16:21.715Z,24.78
2017-03-22T13:17:31.383Z,24.77
2017-03-22T13:18:41.064Z,24.7
2017-03-22T13:19:50.436Z,24.78
2017-03-22T13:20:59.203Z,24.73
2017-03-22T13:22:07.932Z,24.73
2017-03-22T13:23:16.673Z,24.74
2017-03-22T13:24:26.046Z,24.73
2017-03-22T13:25:35.419Z,24.68
2017-03-22T13:26:45.094Z,24.65
2017-03-22T13:27:53.858Z,24.68
2017-03-22T13:29:02.926Z,24.55
2017-03-22T13:30:11.697Z,24.63
2017-03-22T13:31:20.460Z,24.58
2017-03-22T13:32:29.828Z,24.57
2017-03-22T13:33:39.505Z,24.57
2017-03-22T13:34:48.574Z,24.6
2017-03-22T13:35:57.916Z,24.6
2017-03-22T13:37:06.655Z,24.51
2017-03-22T13:38:15.718Z,24.5
2017-03-22T13:39:24.488Z,24.51
2017-03-22T13:40:33.563Z,24.54
2017-03-22T13:41:42.943Z,24.63
2017-03-22T13:42:51.707Z,24.65
2017-03-22T13:44:00.733Z,24.63
2017-03-22T13:45:09.744Z,24.58
2017-03-22T13:46:19.086Z,24.63
2017-03-22T13:47:28.411Z,24.68
2017-03-22T13:48:37.451Z,24.68
2017-03-22T13:49:46.179Z,24.73
2017-03-22T13:50:55.226Z,24.7
2017-03-22T13:52:03.986Z,24.61
2017-03-22T13:53:12.709Z,24.61
2017-03-22T13:54:21.460Z,24.58
2017-03-22T13:55:30.177Z,24.55
2017-03-22T13:56:38.912Z,24.57
2017-03-22T13:57:47.781Z,24.51
2017-03-22T13:58:56.549Z,24.65
2017-03-22T14:00:05.318Z,24.55
2017-03-22T14:01:14.090Z,24.47
2017-03-22T14:02:23.126Z,24.57
2017-03-22T14:03:32.472Z,24.51
2017-03-22T14:04:41.229Z,24.39
2017-03-22T14:05:50.563Z,24.4
2017-03-22T14:06:59.909Z,24.4
2017-03-22T14:08:08.873Z,24.53
2017-03-22T14:09:17.608Z,24.4
2017-03-22T14:10:26.367Z,24.35
2017-03-22T14:11:35.127Z,24.39
2017-03-22T14:12:43.924Z,24.38
2017-03-22T14:13:52.995Z,24.35
2017-03-22T14:15:02.375Z,24.3
2017-03-22T14:16:11.129Z,24.3
2017-03-22T14:17:19.850Z,24.3
2017-03-22T14:18:28.582Z,24.28
2017-03-22T14:19:37.352Z,24.3
2017-03-22T14:20:46.120Z,24.29
2017-03-22T14:21:55.189Z,24.23
2017-03-22T14:23:03.948Z,24.21
2017-03-22T14:24:12.711Z,24.2
2017-03-22T14:25:21.469Z,24.23
2017-03-22T14:26:30.543Z,24.21
2017-03-22T14:27:39.606Z,24.18
2017-03-22T14:28:48.843Z,24.21
2017-03-22T14:29:57.582Z,24.21
2017-03-22T14:31:06.343Z,24.16
2017-03-22T14:32:15.111Z,24.2
2017-03-22T14:33:23.868Z,24.17
2017-03-22T14:34:32.588Z,24.18
2017-03-22T14:35:41.328Z,24.16
2017-03-22T14:36:50.492Z,24.06
2017-03-22T14:37:59.214Z,24.03
2017-03-22T14:39:08.572Z,24.05
2017-03-22T14:40:17.856Z,24.11
2017-03-22T14:41:26.628Z,24.02
2017-03-22T14:42:36.005Z,24.02
2017-03-22T14:43:44.764Z,23.95
2017-03-22T14:44:54.403Z,24.05
2017-03-22T14:46:03.440Z,23.98
2017-03-22T14:47:12.804Z,23.92
2017-03-22T14:48:21.874Z,23.91
2017-03-22T14:49:30.640Z,23.98
2017-03-22T14:50:39.415Z,23.98
2017-03-22T14:51:48.298Z,23.96
2017-03-22T14:52:57.364Z,23.92
2017-03-22T14:54:06.454Z,23.87
2017-03-22T14:55:15.518Z,23.78